Time;durP1;ratioP1;P1;durP2;ratioP2;P2;SDS_P1;SDS_P2;PMS_P1;PMS_P2;Temp;Humidity;BMP_temperature;BMP_pressure;BME280_temperature;BME280_humidity;BME280_pressure;Samples;Min_cycle;Max_cycle;Signal;HPM_P1;HPM_P2
2022/12/24 00:01:17;;;;;;;48.88;16.60;;;6.80;99.90;;;;;;5078816;28;20028;-66
2022/12/24 00:03:43;;;;;;;50.13;16.08;;;6.80;99.90;;;;;;5075785;28;20464;-67
2022/12/24 00:06:16;;;;;;;41.13;16.13;;;6.60;99.90;;;;;;5083751;28;20368;-66
2022/12/24 00:08:41;;;;;;;69.43;18.60;;;6.60;99.90;;;;;;5076843;28;22630;-65
2022/12/24 00:11:07;;;;;;;60.65;17.20;;;6.40;99.90;;;;;;5088933;28;20044;-67
2022/12/24 00:13:33;;;;;;;45.88;16.55;;;6.80;99.90;;;;;;5077472;28;20031;-64
2022/12/24 00:15:59;;;;;;;69.03;18.00;;;6.40;99.90;;;;;;5087877;28;20062;-66
2022/12/24 00:18:24;;;;;;;73.18;18.83;;;6.90;99.90;;;;;;5083086;28;20419;-66
2022/12/24 00:20:50;;;;;;;47.72;17.15;;;6.50;99.90;;;;;;5108900;28;20055;-65
2022/12/24 00:23:16;;;;;;;51.80;16.08;;;6.90;99.90;;;;;;5089358;28;20046;-64
2022/12/24 00:25:42;;;;;;;74.72;17.83;;;6.40;99.90;;;;;;5091940;28;20051;-64
2022/12/24 00:28:08;;;;;;;53.33;17.25;;;6.70;99.90;;;;;;5090818;28;20052;-65
2022/12/24 00:30:33;;;;;;;60.00;17.20;;;6.40;99.90;;;;;;5085928;28;20047;-65
2022/12/24 00:32:59;;;;;;;88.43;20.30;;;6.80;99.90;;;;;;5108560;28;20032;-64
2022/12/24 00:35:24;;;;;;;53.80;16.83;;;6.90;99.90;;;;;;5102688;28;20073;-66
2022/12/24 00:37:50;;;;;;;68.70;18.10;;;6.90;99.90;;;;;;5068776;28;20028;-65
2022/12/24 00:40:17;;;;;;;43.47;16.05;;;6.40;99.90;;;;;;5108646;28;20118;-65
2022/12/24 00:42:43;;;;;;;52.72;17.85;;;6.90;99.90;;;;;;5104910;28;20032;-65
2022/12/24 00:45:10;;;;;;;50.22;16.38;;;6.90;99.90;;;;;;5104803;28;20076;-64
2022/12/24 00:47:35;;;;;;;62.80;17.45;;;6.60;99.90;;;;;;5110077;28;20072;-65
2022/12/24 00:50:01;;;;;;;53.38;16.17;;;6.70;99.90;;;;;;5089369;28;20067;-64
2022/12/24 00:52:27;;;;;;;51.75;16.52;;;6.80;99.90;;;;;;5098546;28;20487;-66
2022/12/24 00:54:52;;;;;;;55.05;15.40;;;6.90;99.90;;;;;;5084707;28;20164;-64
2022/12/24 00:57:18;;;;;;;88.20;19.20;;;6.90;99.90;;;;;;5082626;28;20054;-64
2022/12/24 00:59:43;;;;;;;87.05;20.63;;;6.90;99.90;;;;;;5100169;28;20088;-64
2022/12/24 01:02:09;;;;;;;50.35;15.82;;;6.50;99.90;;;;;;5104846;28;20035;-64
2022/12/24 01:07:19;;;;;;;43.92;16.13;;;6.70;99.90;;;;;;5099795;28;20040;-65
2022/12/24 01:09:44;;;;;;;61.75;18.58;;;6.50;99.90;;;;;;5095704;28;20699;-64
2022/12/24 01:12:10;;;;;;;140.82;25.17;;;6.90;99.90;;;;;;5085651;28;20054;-64
2022/12/24 01:14:36;;;;;;;75.45;19.25;;;6.50;99.90;;;;;;5097355;28;20050;-65
2022/12/24 01:17:03;;;;;;;59.15;17.38;;;6.60;99.90;;;;;;5107964;28;20075;-65
2022/12/24 01:19:28;;;;;;;50.20;16.95;;;6.70;99.90;;;;;;5096170;28;20507;-64
2022/12/24 01:21:54;;;;;;;48.83;15.93;;;6.50;99.90;;;;;;5106024;28;20051;-64
2022/12/24 01:24:20;;;;;;;56.13;17.58;;;6.70;99.90;;;;;;5106966;28;20054;-64
2022/12/24 01:26:46;;;;;;;70.57;18.88;;;6.90;99.90;;;;;;5091344;28;20819;-64
2022/12/24 01:29:11;;;;;;;48.08;16.20;;;6.90;99.90;;;;;;5105593;28;20120;-63
2022/12/24 01:31:38;;;;;;;51.70;16.92;;;7.00;99.90;;;;;;5105013;28;20393;-64
2022/12/24 01:34:03;;;;;;;47.05;16.58;;;7.00;99.90;;;;;;5098584;28;20036;-65
2022/12/24 01:36:29;;;;;;;53.10;16.35;;;6.80;99.90;;;;;;5103581;28;20496;-63
2022/12/24 01:38:54;;;;;;;44.90;16.00;;;6.80;99.90;;;;;;5100910;28;20028;-63
2022/12/24 01:44:19;;;;;;;44.95;15.82;;;6.60;99.90;;;;;;5082524;28;20084;-64
2022/12/24 01:46:46;;;;;;;63.40;18.60;;;7.10;99.90;;;;;;5089983;28;20044;-64
2022/12/24 01:49:15;;;;;;;99.53;20.70;;;7.00;99.90;;;;;;5107516;28;20036;-64
2022/12/24 01:51:47;;;;;;;53.80;16.85;;;6.60;99.90;;;;;;5104246;28;20032;-63
2022/12/24 01:54:35;;;;;;;47.15;16.38;;;6.60;99.90;;;;;;5101303;28;20070;-64
2022/12/24 01:57:08;;;;;;;54.58;16.90;;;7.00;99.90;;;;;;5078032;28;20402;-64
2022/12/24 01:59:36;;;;;;;73.82;18.98;;;7.00;99.90;;;;;;5097049;28;20420;-63
2022/12/24 02:02:02;;;;;;;60.35;17.10;;;7.00;99.90;;;;;;5100051;28;20032;-64
2022/12/24 02:04:39;;;;;;;102.45;23.67;;;7.00;99.90;;;;;;5096117;28;20043;-64
2022/12/24 02:07:05;;;;;;;51.08;17.40;;;7.00;99.90;;;;;;5095847;28;21347;-63
2022/12/24 02:09:33;;;;;;;98.85;22.95;;;6.70;99.90;;;;;;5100022;28;20077;-64
2022/12/24 02:11:59;;;;;;;76.25;21.67;;;6.70;99.90;;;;;;5083559;28;20048;-64
2022/12/24 02:14:27;;;;;;;95.03;23.02;;;6.60;99.90;;;;;;5085077;28;20036;-63
2022/12/24 02:17:11;;;;;;;62.20;19.00;;;7.00;99.90;;;;;;5104128;28;20093;-64
2022/12/24 02:19:57;;;;;;;83.13;22.10;;;7.00;99.90;;;;;;5101258;28;21046;-64
2022/12/24 02:22:39;;;;;;;69.72;20.25;;;6.80;99.90;;;;;;5104340;28;20034;-65
2022/12/24 02:25:43;;;;;;;65.28;20.10;;;6.90;99.90;;;;;;5100485;28;20085;-64
2022/12/24 02:28:52;;;;;;;77.97;20.35;;;7.00;99.90;;;;;;5085948;28;20055;-64
2022/12/24 02:31:38;;;;;;;71.00;20.38;;;6.70;99.90;;;;;;5099308;28;20720;-65
2022/12/24 02:34:50;;;;;;;70.07;20.85;;;6.70;99.90;;;;;;5084288;28;20372;-64
2022/12/24 02:37:21;;;;;;;72.35;20.45;;;7.10;99.90;;;;;;5084799;28;20051;-64
2022/12/24 02:39:59;;;;;;;67.25;20.00;;;6.80;99.90;;;;;;5083306;28;20570;-64
2022/12/24 02:42:33;;;;;;;73.72;19.98;;;7.10;99.90;;;;;;5101461;28;20135;-63
2022/12/24 02:45:09;;;;;;;65.43;19.95;;;6.90;99.90;;;;;;5103106;28;20086;-63
2022/12/24 02:47:36;;;;;;;55.03;18.30;;;6.90;99.90;;;;;;5104776;28;20048;-64
2022/12/24 02:50:03;;;;;;;61.05;18.30;;;7.40;99.90;;;;;;5107710;28;20039;-63
2022/12/24 02:52:34;;;;;;;55.00;18.40;;;7.20;99.90;;;;;;5106146;28;20071;-64
2022/12/24 02:55:09;;;;;;;55.72;17.88;;;7.40;99.90;;;;;;5101056;28;20035;-65
2022/12/24 02:58:09;;;;;;;55.05;17.83;;;7.60;99.90;;;;;;5099277;28;20479;-64
2022/12/24 03:00:45;;;;;;;51.23;16.90;;;7.40;99.90;;;;;;5101160;28;20046;-63
2022/12/24 03:03:22;;;;;;;56.67;17.23;;;7.70;99.90;;;;;;5102848;28;20285;-64
2022/12/24 03:06:06;;;;;;;53.22;16.27;;;7.40;99.90;;;;;;5105591;28;20040;-63
2022/12/24 03:08:41;;;;;;;48.10;14.10;;;7.90;99.90;;;;;;5108665;28;20054;-65
2022/12/24 03:11:12;;;;;;;43.90;13.13;;;7.60;99.90;;;;;;5105001;28;20062;-66
2022/12/24 03:13:40;;;;;;;40.83;13.57;;;7.90;99.90;;;;;;5107594;28;20387;-64
2022/12/24 03:16:09;;;;;;;41.80;13.07;;;7.90;99.90;;;;;;5085386;28;20052;-64
2022/12/24 03:18:37;;;;;;;30.85;11.52;;;7.80;99.90;;;;;;5104043;28;20530;-64
2022/12/24 03:21:09;;;;;;;30.77;10.73;;;7.60;99.90;;;;;;5103640;28;20084;-65
2022/12/24 03:23:35;;;;;;;32.85;10.45;;;8.00;99.90;;;;;;5107737;28;20032;-64
2022/12/24 03:26:06;;;;;;;31.23;11.13;;;8.00;99.90;;;;;;5101827;28;20551;-65
2022/12/24 03:28:33;;;;;;;32.38;10.90;;;7.80;99.90;;;;;;5105643;28;20089;-64
2022/12/24 03:31:02;;;;;;;32.35;9.35;;;7.80;99.90;;;;;;5109020;28;20701;-64
2022/12/24 03:33:28;;;;;;;38.10;9.25;;;7.80;99.90;;;;;;5108437;28;20028;-64
2022/12/24 03:35:53;;;;;;;35.83;8.50;;;8.10;99.90;;;;;;5087172;28;20080;-64
2022/12/24 03:38:19;;;;;;;35.00;7.97;;;7.80;99.90;;;;;;5104859;28;20060;-64
2022/12/24 03:40:44;;;;;;;33.80;8.82;;;8.10;99.90;;;;;;5103244;28;20039;-64
2022/12/24 03:43:10;;;;;;;30.80;7.95;;;8.10;99.90;;;;;;5089468;28;20540;-63
2022/12/24 03:45:36;;;;;;;30.40;7.70;;;8.20;99.90;;;;;;5104086;28;20484;-63
2022/12/24 03:48:01;;;;;;;34.95;7.68;;;7.90;99.90;;;;;;5112836;28;20552;-64
2022/12/24 03:50:27;;;;;;;28.00;6.22;;;7.90;99.90;;;;;;5106769;28;20035;-64
2022/12/24 03:52:53;;;;;;;36.90;6.68;;;7.90;99.90;;;;;;5108518;28;20031;-64
2022/12/24 03:55:19;;;;;;;33.72;6.38;;;7.90;99.90;;;;;;5107490;28;21103;-63
2022/12/24 03:57:45;;;;;;;38.60;6.75;;;8.20;99.90;;;;;;5108914;28;20161;-63
2022/12/24 04:00:11;;;;;;;33.72;5.80;;;7.80;99.90;;;;;;5090335;28;20035;-63
2022/12/24 04:02:36;;;;;;;34.55;6.65;;;8.10;99.90;;;;;;5105839;28;20059;-63
2022/12/24 04:05:02;;;;;;;35.03;6.05;;;7.80;99.90;;;;;;5104750;28;20040;-64
2022/12/24 04:07:27;;;;;;;31.40;5.22;;;7.80;99.90;;;;;;5105615;28;20036;-63
2022/12/24 04:09:53;;;;;;;35.85;5.55;;;8.10;99.90;;;;;;5106942;28;20050;-64
2022/12/24 04:12:19;;;;;;;40.10;5.88;;;7.80;99.90;;;;;;5103235;28;20497;-64
2022/12/24 04:14:44;;;;;;;28.20;5.10;;;8.00;99.90;;;;;;5105491;28;20479;-63
2022/12/24 04:17:10;;;;;;;33.53;5.15;;;8.00;99.90;;;;;;5106981;28;20091;-64
2022/12/24 04:19:35;;;;;;;38.35;5.93;;;8.10;99.90;;;;;;5108780;28;20071;-64
2022/12/24 04:22:01;;;;;;;30.77;6.45;;;7.80;99.90;;;;;;5103348;28;20100;-64
2022/12/24 04:24:26;;;;;;;33.33;5.35;;;7.80;99.90;;;;;;5108802;28;20379;-64
2022/12/24 04:26:52;;;;;;;34.50;4.97;;;7.80;99.90;;;;;;5109772;28;20038;-63
2022/12/24 04:29:17;;;;;;;44.70;5.57;;;7.90;99.90;;;;;;5104636;28;20039;-64
2022/12/24 04:31:43;;;;;;;43.50;5.60;;;8.00;99.90;;;;;;5096586;28;20054;-65
2022/12/24 04:34:09;;;;;;;37.03;6.30;;;8.10;99.90;;;;;;5097027;28;20036;-64
2022/12/24 04:36:34;;;;;;;37.17;6.05;;;8.00;99.90;;;;;;5098566;28;20032;-64
2022/12/24 04:39:00;;;;;;;36.97;6.15;;;7.80;99.90;;;;;;5100987;28;20047;-64
2022/12/24 04:41:25;;;;;;;31.00;4.97;;;7.70;99.90;;;;;;5097201;28;20039;-63
2022/12/24 04:43:52;;;;;;;37.60;6.78;;;7.90;99.90;;;;;;5101267;28;20036;-64
2022/12/24 04:46:20;;;;;;;40.33;5.53;;;7.80;99.90;;;;;;5100324;28;20036;-63
2022/12/24 04:48:48;;;;;;;37.55;5.47;;;8.00;99.90;;;;;;5105396;28;20131;-64
2022/12/24 04:51:14;;;;;;;26.77;5.82;;;7.70;99.90;;;;;;5101212;28;20153;-63
2022/12/24 04:53:41;;;;;;;35.08;5.05;;;8.00;99.90;;;;;;5100930;28;20039;-64
2022/12/24 04:56:12;;;;;;;34.22;6.93;;;7.80;99.90;;;;;;5105231;28;20044;-64
2022/12/24 04:58:38;;;;;;;30.63;5.55;;;8.00;99.90;;;;;;5099306;28;20039;-64
2022/12/24 05:01:05;;;;;;;34.30;6.15;;;8.00;99.90;;;;;;5090193;28;20410;-63
2022/12/24 05:03:30;;;;;;;37.17;6.10;;;7.70;99.90;;;;;;5084117;28;20039;-64
2022/12/24 05:06:12;;;;;;;43.20;7.38;;;8.00;99.90;;;;;;5108676;28;20044;-64
2022/12/24 05:08:38;;;;;;;39.95;6.25;;;7.70;99.90;;;;;;5106671;28;20437;-64
2022/12/24 05:11:05;;;;;;;41.95;5.97;;;8.00;99.90;;;;;;5100452;28;20039;-64
2022/12/24 05:13:31;;;;;;;39.47;6.45;;;7.80;99.90;;;;;;5105339;28;20039;-64
2022/12/24 05:15:57;;;;;;;33.95;6.32;;;7.90;99.90;;;;;;5103449;28;20698;-64
2022/12/24 05:18:22;;;;;;;34.35;5.72;;;8.10;99.90;;;;;;5106834;28;20047;-64
2022/12/24 05:20:48;;;;;;;41.83;7.10;;;8.10;99.90;;;;;;5105162;28;20035;-63
2022/12/24 05:26:22;;;;;;;50.97;6.90;;;8.00;99.90;;;;;;5108313;28;20051;-64
2022/12/24 05:28:53;;;;;;;52.13;7.13;;;8.00;99.90;;;;;;5102910;28;20041;-63
2022/12/24 05:31:19;;;;;;;40.33;5.97;;;8.00;99.90;;;;;;5108517;28;20043;-64
2022/12/24 05:33:45;;;;;;;46.92;6.50;;;7.70;99.90;;;;;;5107322;28;20048;-64
2022/12/24 05:36:10;;;;;;;48.75;6.35;;;8.00;99.90;;;;;;5103805;28;20046;-64
2022/12/24 05:38:36;;;;;;;45.72;6.47;;;8.00;99.90;;;;;;5087663;28;20548;-64
2022/12/24 05:41:02;;;;;;;35.97;6.15;;;8.00;99.90;;;;;;5088515;28;20039;-64
2022/12/24 05:43:28;;;;;;;45.58;5.93;;;8.00;99.90;;;;;;5101839;28;20088;-64
2022/12/24 05:45:58;;;;;;;38.10;6.80;;;8.00;99.90;;;;;;5099364;28;20436;-64
2022/12/24 05:48:24;;;;;;;46.33;6.47;;;7.90;99.90;;;;;;5107097;28;20408;-64
2022/12/24 05:50:50;;;;;;;44.67;6.43;;;7.60;99.90;;;;;;5102763;28;20127;-64
2022/12/24 05:53:15;;;;;;;39.45;5.88;;;7.90;99.90;;;;;;5099440;28;20047;-65
2022/12/24 05:55:41;;;;;;;39.38;6.43;;;7.90;99.90;;;;;;5101330;28;20040;-64
2022/12/24 05:58:06;;;;;;;39.15;6.47;;;7.60;99.90;;;;;;5098840;28;20032;-63
2022/12/24 06:00:32;;;;;;;37.72;6.55;;;7.70;99.90;;;;;;5106879;28;20035;-64
2022/12/24 06:02:57;;;;;;;46.90;7.15;;;8.00;99.90;;;;;;5102268;28;20487;-64
2022/12/24 06:05:23;;;;;;;44.22;7.05;;;7.80;99.90;;;;;;5081976;28;20043;-64
2022/12/24 06:07:49;;;;;;;42.83;6.60;;;7.70;99.90;;;;;;5095935;28;20035;-64
2022/12/24 06:10:14;;;;;;;54.22;8.02;;;7.70;99.90;;;;;;5101518;28;20039;-64
2022/12/24 06:12:40;;;;;;;57.92;7.18;;;7.60;99.90;;;;;;5100207;28;20050;-65
2022/12/24 06:15:06;;;;;;;44.00;6.22;;;7.90;99.90;;;;;;5101588;28;20040;-64
2022/12/24 06:17:32;;;;;;;43.38;6.72;;;7.70;99.90;;;;;;5106320;28;20435;-64
2022/12/24 06:19:58;;;;;;;35.10;5.55;;;8.00;99.90;;;;;;5102103;28;20075;-64
2022/12/24 06:22:23;;;;;;;44.60;6.13;;;8.00;99.90;;;;;;5097524;28;20135;-64
2022/12/24 06:24:49;;;;;;;41.92;5.85;;;8.00;99.90;;;;;;5081240;28;20403;-64
2022/12/24 06:27:14;;;;;;;46.10;7.35;;;7.70;99.90;;;;;;5108251;28;20467;-65
2022/12/24 06:29:40;;;;;;;48.05;6.55;;;7.70;99.90;;;;;;5102195;28;20035;-64
2022/12/24 06:32:05;;;;;;;44.80;6.47;;;7.80;99.90;;;;;;5104104;28;20445;-63
2022/12/24 06:34:31;;;;;;;34.75;6.15;;;8.00;99.90;;;;;;5101759;28;20057;-64
2022/12/24 06:36:56;;;;;;;46.75;6.90;;;8.00;99.90;;;;;;5081767;28;20074;-64
2022/12/24 06:39:22;;;;;;;44.88;7.05;;;7.70;99.90;;;;;;5100753;28;20148;-63
2022/12/24 06:41:47;;;;;;;48.97;8.15;;;7.80;99.90;;;;;;5098464;28;20104;-64
2022/12/24 06:44:13;;;;;;;62.65;8.20;;;8.00;99.90;;;;;;5104109;28;20042;-64
2022/12/24 06:46:38;;;;;;;40.42;7.07;;;7.80;99.90;;;;;;5102228;28;20039;-64
2022/12/24 06:49:04;;;;;;;52.50;8.23;;;7.70;99.90;;;;;;5086458;28;20417;-64
2022/12/24 06:51:30;;;;;;;45.38;7.22;;;7.70;99.90;;;;;;5108230;28;20367;-64
2022/12/24 06:53:55;;;;;;;53.55;8.27;;;7.90;99.90;;;;;;5106139;28;20047;-64
2022/12/24 06:56:21;;;;;;;47.20;7.65;;;7.80;99.90;;;;;;5103753;28;20039;-64
2022/12/24 06:58:47;;;;;;;42.72;8.50;;;7.70;99.90;;;;;;5107332;28;20031;-63
2022/12/24 07:01:15;;;;;;;43.13;7.15;;;7.70;99.90;;;;;;5096423;28;20047;-64
2022/12/24 07:03:41;;;;;;;42.85;8.55;;;7.60;99.90;;;;;;5092605;28;20082;-64
2022/12/24 07:06:11;;;;;;;60.42;7.88;;;7.90;99.90;;;;;;5071809;28;20040;-63
2022/12/24 07:08:36;;;;;;;;;;;7.90;99.90;;;;;;5097046;28;20044;-65
2022/12/24 07:11:02;;;;;;;44.15;9.63;;;7.90;99.90;;;;;;5097927;28;20347;-65
2022/12/24 07:13:28;;;;;;;48.25;8.93;;;7.90;99.90;;;;;;5074125;28;20043;-64
2022/12/24 07:16:01;;;;;;;44.75;8.60;;;8.00;99.90;;;;;;5099692;28;20048;-65
2022/12/24 07:18:27;;;;;;;62.03;9.35;;;8.00;99.90;;;;;;5109596;28;20050;-63
2022/12/24 07:20:53;;;;;;;44.15;9.15;;;8.00;99.90;;;;;;5105979;28;20092;-64
2022/12/24 07:23:19;;;;;;;51.95;8.60;;;8.10;99.90;;;;;;5103579;28;20043;-64
2022/12/24 07:25:44;;;;;;;40.53;9.40;;;7.90;99.90;;;;;;5103362;28;20070;-65
2022/12/24 07:28:10;;;;;;;50.72;8.30;;;8.20;99.90;;;;;;5103374;28;20046;-64
2022/12/24 07:30:35;;;;;;;46.28;8.88;;;8.20;99.90;;;;;;5078043;28;20491;-65
2022/12/24 07:33:01;;;;;;;48.72;8.55;;;8.30;99.90;;;;;;5104110;28;20483;-63
2022/12/24 07:35:26;;;;;;;53.60;7.82;;;8.30;99.90;;;;;;5084162;28;20122;-63
2022/12/24 07:37:52;;;;;;;41.70;8.23;;;8.20;99.90;;;;;;5101446;28;20032;-65
2022/12/24 07:40:17;;;;;;;45.78;7.70;;;8.30;99.90;;;;;;5099851;28;20527;-64
2022/12/24 07:42:43;;;;;;;47.05;7.97;;;8.30;99.90;;;;;;5092843;28;20849;-64
2022/12/24 07:45:09;;;;;;;39.38;7.28;;;8.30;99.90;;;;;;5102031;28;20043;-63
2022/12/24 07:47:35;;;;;;;52.72;9.75;;;8.30;99.90;;;;;;5093295;28;20110;-63
2022/12/24 07:50:01;;;;;;;51.17;8.57;;;8.10;99.90;;;;;;5092514;28;20170;-64
2022/12/24 07:52:26;;;;;;;47.15;8.77;;;8.20;99.90;;;;;;5092594;28;20071;-64
2022/12/24 07:54:52;;;;;;;39.47;8.32;;;8.40;99.90;;;;;;5088118;28;20494;-64
2022/12/24 07:57:17;;;;;;;50.80;8.68;;;8.40;99.90;;;;;;5107923;28;20036;-63
2022/12/24 07:59:43;;;;;;;50.63;8.88;;;8.40;99.90;;;;;;5091489;28;20040;-64
2022/12/24 08:02:12;;;;;;;48.97;8.48;;;8.40;99.90;;;;;;5102867;28;20031;-64
2022/12/24 08:04:37;;;;;;;47.85;9.07;;;8.20;99.90;;;;;;5100560;28;20597;-64
2022/12/24 08:07:04;;;;;;;41.53;8.77;;;8.40;99.90;;;;;;5092428;28;20035;-64
2022/12/24 08:09:31;;;;;;;58.53;10.52;;;8.20;99.90;;;;;;5099108;28;20050;-65
2022/12/24 08:11:56;;;;;;;47.92;9.23;;;8.40;99.90;;;;;;5098314;28;20040;-64
2022/12/24 08:14:22;;;;;;;42.47;9.05;;;8.30;99.90;;;;;;5078076;28;20044;-64
2022/12/24 08:16:48;;;;;;;43.50;8.48;;;8.30;99.90;;;;;;5110162;28;20052;-64
2022/12/24 08:19:13;;;;;;;50.97;9.40;;;8.30;99.90;;;;;;5101383;28;20039;-64
2022/12/24 08:21:39;;;;;;;46.65;8.85;;;8.40;99.90;;;;;;5097513;28;20119;-64
2022/12/24 08:24:05;;;;;;;46.63;9.68;;;8.30;99.90;;;;;;5094904;28;20047;-64
2022/12/24 08:26:30;;;;;;;40.80;8.32;;;8.50;99.90;;;;;;5098594;28;20051;-64
2022/12/24 08:28:56;;;;;;;44.75;8.65;;;8.40;99.90;;;;;;5112368;28;20088;-64
2022/12/24 08:31:22;;;;;;;44.35;8.15;;;8.50;99.90;;;;;;5111292;28;20127;-64
2022/12/24 08:33:47;;;;;;;51.42;9.52;;;8.30;99.90;;;;;;5094167;28;20040;-64
2022/12/24 08:36:13;;;;;;;41.58;8.75;;;8.50;99.90;;;;;;5105030;28;20452;-64
2022/12/24 08:38:38;;;;;;;43.08;7.47;;;8.30;99.90;;;;;;5110073;28;20040;-65
2022/12/24 08:41:04;;;;;;;45.80;8.23;;;8.30;99.90;;;;;;5108944;28;21016;-64
2022/12/24 08:43:30;;;;;;;34.75;7.35;;;8.30;99.90;;;;;;5110471;28;20028;-64
2022/12/24 08:46:04;;;;;;;35.85;7.53;;;8.30;99.90;;;;;;5112882;28;20567;-64
2022/12/24 08:48:31;;;;;;;47.47;8.40;;;8.40;99.90;;;;;;5111222;28;20054;-64
2022/12/24 08:50:56;;;;;;;42.25;8.32;;;8.40;99.90;;;;;;5109244;28;20043;-64
2022/12/24 08:53:22;;;;;;;39.40;8.23;;;8.40;99.90;;;;;;5093149;28;20044;-64
2022/12/24 08:55:48;;;;;;;46.42;9.13;;;8.40;99.90;;;;;;5113156;28;20065;-64
2022/12/24 08:58:13;;;;;;;55.03;9.48;;;8.40;99.90;;;;;;5110051;28;20471;-64
2022/12/24 09:00:39;;;;;;;35.38;8.85;;;8.60;99.90;;;;;;5108636;28;20038;-64
2022/12/24 09:03:04;;;;;;;47.88;8.57;;;8.50;99.90;;;;;;5110904;28;20035;-63
2022/12/24 09:05:30;;;;;;;43.20;8.90;;;8.50;99.90;;;;;;5110021;28;20039;-64
2022/12/24 09:07:56;;;;;;;39.92;9.25;;;8.50;99.90;;;;;;5104582;28;20047;-64
2022/12/24 09:10:22;;;;;;;32.83;8.07;;;8.60;99.90;;;;;;5088037;28;20180;-64
2022/12/24 09:12:47;;;;;;;35.70;8.07;;;8.60;99.90;;;;;;5110081;28;20039;-65
2022/12/24 09:15:13;;;;;;;40.13;8.27;;;8.50;99.90;;;;;;5099036;28;20126;-65
2022/12/24 09:17:39;;;;;;;46.42;9.75;;;8.60;99.90;;;;;;5100756;28;20184;-65
2022/12/24 09:20:05;;;;;;;43.53;9.10;;;8.70;99.90;;;;;;5101137;28;20043;-64
2022/12/24 09:22:35;;;;;;;32.88;8.90;;;8.60;99.90;;;;;;5088501;28;20034;-64
2022/12/24 09:25:03;;;;;;;41.75;8.82;;;8.60;99.90;;;;;;5098023;28;20032;-65
2022/12/24 09:27:30;;;;;;;40.00;9.02;;;8.50;99.90;;;;;;5096485;28;20092;-63
2022/12/24 09:29:55;;;;;;;46.67;9.00;;;8.80;99.90;;;;;;5105564;28;20035;-64
2022/12/24 09:32:21;;;;;;;47.33;9.90;;;8.80;99.90;;;;;;5099122;28;20043;-65
2022/12/24 09:34:47;;;;;;;47.53;9.93;;;8.80;99.90;;;;;;5096343;28;20479;-64
2022/12/24 09:37:12;;;;;;;42.17;9.95;;;8.80;99.90;;;;;;5092665;28;20032;-64
2022/12/24 09:39:38;;;;;;;48.97;10.65;;;8.70;99.90;;;;;;5103988;28;20043;-63
2022/12/24 09:42:03;;;;;;;40.75;10.05;;;8.70;99.90;;;;;;5087958;28;20040;-64
2022/12/24 09:44:57;;;;;;;45.53;9.68;;;8.70;99.90;;;;;;5096458;28;20095;-64
2022/12/24 09:47:33;;;;;;;35.83;8.88;;;8.80;99.90;;;;;;5105694;28;20028;-63
2022/12/24 09:50:02;;;;;;;43.13;9.27;;;8.80;99.90;;;;;;5098797;28;20059;-64
2022/12/24 09:52:32;;;;;;;44.95;9.43;;;8.80;99.90;;;;;;5103893;28;20039;-64
2022/12/24 09:55:09;;;;;;;37.92;9.15;;;9.00;99.90;;;;;;5110672;28;20044;-64
2022/12/24 09:57:39;;;;;;;47.08;9.30;;;8.90;99.90;;;;;;5107892;28;20114;-65
2022/12/24 10:00:15;;;;;;;44.08;9.20;;;8.80;99.90;;;;;;5073933;28;20071;-64
2022/12/24 10:02:41;;;;;;;43.00;9.23;;;8.80;99.90;;;;;;5105676;28;20039;-64
2022/12/24 10:05:12;;;;;;;46.85;10.27;;;8.80;99.90;;;;;;5109389;28;20664;-63
2022/12/24 10:07:52;;;;;;;39.20;8.98;;;8.90;99.90;;;;;;5097762;28;20043;-64
2022/12/24 10:10:37;;;;;;;33.65;9.35;;;8.70;99.90;;;;;;5106127;28;20454;-65
2022/12/24 10:13:19;;;;;;;26.27;6.75;;;8.80;99.90;;;;;;5104451;28;20054;-63
2022/12/24 10:15:59;;;;;;;32.22;6.68;;;8.80;99.90;;;;;;5108897;28;20127;-64
2022/12/24 10:18:34;;;;;;;24.73;6.05;;;8.70;99.90;;;;;;5109598;28;20032;-64
2022/12/24 10:21:17;;;;;;;20.70;5.60;;;8.60;99.90;;;;;;5103497;28;20043;-64
2022/12/24 10:23:55;;;;;;;25.23;5.85;;;8.60;99.90;;;;;;5104699;28;20042;-65
2022/12/24 10:26:45;;;;;;;26.38;5.65;;;8.70;99.90;;;;;;5111046;28;20047;-64
2022/12/24 10:29:21;;;;;;;24.92;5.22;;;8.70;99.90;;;;;;5107200;28;20046;-64
2022/12/24 10:31:58;;;;;;;41.85;7.32;;;8.60;99.90;;;;;;5107392;28;20044;-64
2022/12/24 10:34:29;;;;;;;28.90;5.60;;;8.70;99.90;;;;;;5102561;28;20051;-65
2022/12/24 10:36:55;;;;;;;36.30;6.47;;;8.70;99.90;;;;;;5100310;28;20032;-64
2022/12/24 10:39:24;;;;;;;29.60;6.85;;;8.80;99.90;;;;;;5107912;28;20134;-64
2022/12/24 10:41:54;;;;;;;26.38;5.72;;;8.70;99.90;;;;;;5110364;28;20054;-64
2022/12/24 10:44:22;;;;;;;32.80;7.87;;;8.80;99.90;;;;;;5106959;28;20383;-64
2022/12/24 10:46:48;;;;;;;28.20;5.68;;;8.80;99.90;;;;;;5111002;28;20172;-63
2022/12/24 10:49:22;;;;;;;22.20;5.60;;;9.00;99.90;;;;;;5111001;28;20134;-64
2022/12/24 10:52:20;;;;;;;36.65;6.30;;;8.80;99.90;;;;;;5108006;28;20039;-63
2022/12/24 10:55:23;;;;;;;30.00;6.25;;;8.90;99.90;;;;;;5107724;28;20039;-64
2022/12/24 10:58:04;;;;;;;29.77;6.43;;;9.10;99.90;;;;;;5036151;28;22485;-64
2022/12/24 11:00:31;;;;;;;36.75;7.10;;;8.90;99.90;;;;;;5053733;28;20128;-64
2022/12/24 11:03:20;;;;;;;29.98;6.97;;;9.00;99.90;;;;;;5099633;28;20043;-64
2022/12/24 11:06:11;;;;;;;37.50;7.32;;;9.20;99.90;;;;;;5102052;28;20316;-64
2022/12/24 11:08:42;;;;;;;32.58;6.57;;;9.20;99.90;;;;;;5106134;28;20047;-63
2022/12/24 11:11:16;;;;;;;31.58;6.03;;;9.30;99.90;;;;;;5101755;28;20031;-64
2022/12/24 11:13:43;;;;;;;40.67;7.45;;;9.40;99.90;;;;;;5099972;28;20032;-64
2022/12/24 11:16:31;;;;;;;32.72;6.60;;;9.30;99.90;;;;;;5102309;28;20082;-64
2022/12/24 11:19:02;;;;;;;33.10;6.30;;;9.30;99.90;;;;;;5106629;28;20059;-65
2022/12/24 11:21:34;;;;;;;33.65;5.63;;;9.30;99.90;;;;;;5106897;28;20032;-63
2022/12/24 11:24:04;;;;;;;38.00;6.60;;;9.30;99.90;;;;;;5090723;28;20604;-64
2022/12/24 11:26:30;;;;;;;38.38;5.78;;;9.30;99.90;;;;;;5112194;28;20039;-63
2022/12/24 11:29:04;;;;;;;35.33;6.00;;;9.30;99.90;;;;;;5112411;28;20043;-63
2022/12/24 11:31:31;;;;;;;30.33;4.97;;;9.20;99.90;;;;;;5114024;28;20036;-64
2022/12/24 11:33:57;;;;;;;34.00;5.40;;;9.10;99.90;;;;;;5109018;28;20035;-65
2022/12/24 11:36:25;;;;;;;33.35;5.50;;;9.10;99.90;;;;;;5112353;28;20638;-65
2022/12/24 11:38:56;;;;;;;28.95;5.82;;;9.10;99.90;;;;;;5111726;28;20099;-63
2022/12/24 11:41:22;;;;;;;31.65;5.55;;;9.00;99.90;;;;;;5113167;28;20031;-63
2022/12/24 11:43:50;;;;;;;32.38;7.10;;;9.00;99.90;;;;;;5111294;28;20038;-64
2022/12/24 11:46:37;;;;;;;35.88;6.00;;;9.10;99.90;;;;;;5114474;28;20348;-63
2022/12/24 11:49:12;;;;;;;36.33;5.82;;;9.00;99.90;;;;;;5105998;28;20097;-64
2022/12/24 11:51:44;;;;;;;27.23;6.57;;;9.00;99.90;;;;;;5111022;28;20036;-64
2022/12/24 11:54:21;;;;;;;44.25;6.18;;;9.10;99.90;;;;;;5108075;28;20082;-65
2022/12/24 11:56:53;;;;;;;28.98;5.50;;;9.10;99.90;;;;;;5101506;28;20042;-64
2022/12/24 11:59:36;;;;;;;46.17;6.82;;;9.00;99.90;;;;;;5111370;28;20498;-64
2022/12/24 12:02:16;;;;;;;35.05;6.35;;;9.00;99.90;;;;;;5108471;28;20118;-63
2022/12/24 12:04:45;;;;;;;36.50;7.53;;;9.10;99.90;;;;;;5104371;28;20139;-64
2022/12/24 12:07:21;;;;;;;33.00;6.18;;;9.00;99.90;;;;;;5095855;28;20101;-64
2022/12/24 12:09:56;;;;;;;36.05;6.57;;;9.00;99.90;;;;;;5090778;28;20036;-63
2022/12/24 12:12:25;;;;;;;28.77;5.82;;;9.00;99.90;;;;;;5102091;28;20043;-64
2022/12/24 12:15:02;;;;;;;29.45;5.05;;;9.00;99.90;;;;;;5101782;28;20427;-64
2022/12/24 12:17:57;;;;;;;31.65;5.63;;;9.00;99.90;;;;;;5106264;28;20047;-63
2022/12/24 12:20:29;;;;;;;31.63;7.25;;;9.10;99.90;;;;;;5108613;28;20055;-64
2022/12/24 12:23:15;;;;;;;32.28;5.80;;;9.00;99.90;;;;;;5110297;28;20118;-65
2022/12/24 12:25:46;;;;;;;25.23;4.35;;;9.10;99.90;;;;;;5106777;28;20474;-65
2022/12/24 12:28:21;;;;;;;27.85;5.47;;;9.00;99.90;;;;;;5108961;28;20042;-64
2022/12/24 12:30:57;;;;;;;29.67;4.90;;;9.00;99.90;;;;;;5088483;28;20203;-65
2022/12/24 12:33:42;;;;;;;29.23;5.35;;;9.10;99.90;;;;;;5104734;28;20039;-65
2022/12/24 12:36:10;;;;;;;28.13;5.10;;;9.10;99.90;;;;;;5101083;28;20036;-64
2022/12/24 12:38:36;;;;;;;29.13;4.40;;;9.10;99.90;;;;;;5103389;28;21768;-65
2022/12/24 12:41:21;;;;;;;24.80;4.80;;;9.10;99.90;;;;;;5108495;28;20027;-64
2022/12/24 12:44:12;;;;;;;26.55;4.85;;;9.10;99.90;;;;;;5104660;28;20032;-64
2022/12/24 12:46:59;;;;;;;28.55;4.32;;;9.10;99.90;;;;;;5069583;28;20048;-65
2022/12/24 12:49:41;;;;;;;29.83;5.07;;;9.00;99.90;;;;;;5104781;28;20171;-64
2022/12/24 12:52:19;;;;;;;26.17;5.07;;;9.10;99.90;;;;;;5093895;28;20038;-65
2022/12/24 12:55:18;;;;;;;27.85;4.43;;;9.00;99.90;;;;;;5111760;28;20059;-64
2022/12/24 12:57:46;;;;;;;22.15;3.92;;;9.10;99.90;;;;;;5106571;28;20062;-64
2022/12/24 13:00:16;;;;;;;18.98;3.90;;;9.00;99.90;;;;;;5112645;28;20040;-65
2022/12/24 13:02:58;;;;;;;26.80;4.63;;;9.00;99.90;;;;;;5107994;28;20491;-64
2022/12/24 13:05:58;;;;;;;26.38;4.88;;;8.90;99.90;;;;;;5098951;28;20067;-65
2022/12/24 13:08:37;;;;;;;29.65;4.75;;;8.90;99.90;;;;;;5086642;28;20179;-65